KLEB/LEB METAR and TAF weather

Enter ICAO airport designator
Station Type Date Time Source
KLEB METAR 2020/06/06 00:53 UTC NOAA

KLEB 060053Z 18008KT 10SM BKN110 25/19 A2978 RMK AO2 LTG DSNT N SLP073 T02500194


Station Type Date Time Source
KLEB Decoded METAR 2020/06/06 00:53 UTC NOAA

LEBANON MUNICIPAL AIRPORT, NH, United States (KLEB) 43-38N 072-18W 171M
Jun 05, 2020 - 08:53 PM EDT / 2020.06.06 0053 UTC
Wind: from the S (180 degrees) at 9 MPH (8 KT):0
Visibility: 10 mile(s):0
Sky conditions: mostly cloudy
Weather: Lightning observed
Temperature: 77.0 F (25.0 C)
Dew Point: 66.9 F (19.4 C)
Relative Humidity: 71%
Pressure (altimeter): 29.78 in. Hg (1008 hPa)
ob: KLEB 060053Z 18008KT 10SM BKN110 25/19 A2978 RMK AO2 LTG DSNT N SLP073 T02500194
cycle: 1

Station Type Date Time Source
KLEB TAF 2020/06/05 18:24 UTC NOAA

TAF KLEB 051723Z 0518/0618 19010KT P6SM VCSH BKN060
FM052200 20004KT P6SM SCT060
FM060500 00000KT 3SM BR BKN009
FM061300 22009KT P6SM VCSH BKN035
FM061700 27010KT P6SM BKN050

Example: see airport list